sensor_id;sensor_type;location;lat;lon;timestamp;pressure;altitude;pressure_sealevel;temperature;humidity
21234;BME280;10774;42.178;26.578;2022-12-15T00:02:28;99475.44;;;4.12;100.00
21234;BME280;10774;42.178;26.578;2022-12-15T00:05:12;99501.81;;;4.15;100.00
21234;BME280;10774;42.178;26.578;2022-12-15T00:07:55;99455.81;;;3.96;100.00
21234;BME280;10774;42.178;26.578;2022-12-15T00:10:39;99486.28;;;4.06;100.00
21234;BME280;10774;42.178;26.578;2022-12-15T00:13:23;99479.25;;;4.44;100.00
21234;BME280;10774;42.178;26.578;2022-12-15T00:16:07;99496.06;;;4.44;100.00
21234;BME280;10774;42.178;26.578;2022-12-15T00:18:51;99489.22;;;4.00;100.00
21234;BME280;10774;42.178;26.578;2022-12-15T00:21:35;99485.16;;;4.51;100.00
21234;BME280;10774;42.178;26.578;2022-12-15T00:24:19;99454.88;;;4.15;100.00
21234;BME280;10774;42.178;26.578;2022-12-15T00:27:03;99501.75;;;4.56;100.00
21234;BME280;10774;42.178;26.578;2022-12-15T00:29:47;99499.00;;;4.76;100.00
21234;BME280;10774;42.178;26.578;2022-12-15T00:32:31;99470.75;;;4.92;100.00
21234;BME280;10774;42.178;26.578;2022-12-15T00:35:15;99467.97;;;5.13;100.00
21234;BME280;10774;42.178;26.578;2022-12-15T00:38:11;99453.75;;;5.31;100.00
21234;BME280;10774;42.178;26.578;2022-12-15T00:40:55;99431.91;;;5.42;100.00
21234;BME280;10774;42.178;26.578;2022-12-15T00:43:30;99462.38;;;5.54;100.00
21234;BME280;10774;42.178;26.578;2022-12-15T00:45:56;99460.00;;;5.13;100.00
21234;BME280;10774;42.178;26.578;2022-12-15T00:48:41;99451.72;;;5.36;100.00
21234;BME280;10774;42.178;26.578;2022-12-15T00:51:07;99459.66;;;5.55;100.00
21234;BME280;10774;42.178;26.578;2022-12-15T00:53:32;99413.91;;;5.47;100.00
21234;BME280;10774;42.178;26.578;2022-12-15T00:56:17;99425.34;;;5.32;100.00
21234;BME280;10774;42.178;26.578;2022-12-15T00:59:00;99409.22;;;5.52;100.00
21234;BME280;10774;42.178;26.578;2022-12-15T01:01:44;99397.06;;;5.64;100.00
21234;BME280;10774;42.178;26.578;2022-12-15T01:04:28;99425.09;;;5.71;100.00
21234;BME280;10774;42.178;26.578;2022-12-15T01:07:13;99434.94;;;5.69;100.00
21234;BME280;10774;42.178;26.578;2022-12-15T01:09:57;99437.78;;;5.31;100.00
21234;BME280;10774;42.178;26.578;2022-12-15T01:12:42;99432.59;;;4.93;100.00
21234;BME280;10774;42.178;26.578;2022-12-15T01:15:26;99419.72;;;4.84;100.00
21234;BME280;10774;42.178;26.578;2022-12-15T01:18:10;99376.41;;;4.99;100.00
21234;BME280;10774;42.178;26.578;2022-12-15T01:20:59;99377.69;;;5.27;100.00
21234;BME280;10774;42.178;26.578;2022-12-15T01:23:25;99387.25;;;5.48;100.00
21234;BME280;10774;42.178;26.578;2022-12-15T01:25:51;99374.38;;;5.57;100.00
21234;BME280;10774;42.178;26.578;2022-12-15T01:28:18;99389.13;;;5.80;100.00
21234;BME280;10774;42.178;26.578;2022-12-15T01:30:44;99390.41;;;5.72;100.00
21234;BME280;10774;42.178;26.578;2022-12-15T01:33:09;99391.25;;;5.73;100.00
21234;BME280;10774;42.178;26.578;2022-12-15T01:35:34;99376.81;;;5.94;100.00
21234;BME280;10774;42.178;26.578;2022-12-15T01:38:00;99408.81;;;6.10;100.00
21234;BME280;10774;42.178;26.578;2022-12-15T01:40:25;99373.94;;;6.15;100.00
21234;BME280;10774;42.178;26.578;2022-12-15T01:43:14;99362.66;;;6.10;100.00
21234;BME280;10774;42.178;26.578;2022-12-15T01:45:50;99382.44;;;6.21;100.00
21234;BME280;10774;42.178;26.578;2022-12-15T01:48:21;99386.41;;;6.30;100.00
21234;BME280;10774;42.178;26.578;2022-12-15T01:51:05;99363.72;;;6.39;100.00
21234;BME280;10774;42.178;26.578;2022-12-15T01:53:38;99349.81;;;6.18;100.00
21234;BME280;10774;42.178;26.578;2022-12-15T01:56:05;99327.63;;;6.33;100.00
21234;BME280;10774;42.178;26.578;2022-12-15T01:58:34;99345.75;;;6.42;100.00
21234;BME280;10774;42.178;26.578;2022-12-15T02:01:00;99340.00;;;6.34;100.00
21234;BME280;10774;42.178;26.578;2022-12-15T02:03:27;99334.66;;;6.34;100.00
21234;BME280;10774;42.178;26.578;2022-12-15T02:05:53;99323.66;;;6.40;100.00
21234;BME280;10774;42.178;26.578;2022-12-15T02:08:19;99310.31;;;6.40;100.00
21234;BME280;10774;42.178;26.578;2022-12-15T02:10:50;99335.31;;;6.53;100.00
21234;BME280;10774;42.178;26.578;2022-12-15T02:13:58;99331.63;;;6.72;100.00
21234;BME280;10774;42.178;26.578;2022-12-15T02:24:45;99328.72;;;4.96;100.00
21234;BME280;10774;42.178;26.578;2022-12-15T02:30:21;99327.78;;;4.97;100.00
21234;BME280;10774;42.178;26.578;2022-12-15T02:35:27;99330.44;;;4.80;100.00
21234;BME280;10774;42.178;26.578;2022-12-15T02:37:53;99328.88;;;4.76;100.00
21234;BME280;10774;42.178;26.578;2022-12-15T02:40:19;99333.00;;;4.82;100.00
21234;BME280;10774;42.178;26.578;2022-12-15T02:42:48;99336.22;;;4.88;100.00
21234;BME280;10774;42.178;26.578;2022-12-15T02:45:18;99324.97;;;5.18;100.00
21234;BME280;10774;42.178;26.578;2022-12-15T02:56:43;99331.25;;;5.83;100.00
21234;BME280;10774;42.178;26.578;2022-12-15T02:59:09;99337.19;;;5.55;100.00
21234;BME280;10774;42.178;26.578;2022-12-15T03:01:45;99327.41;;;5.56;100.00
21234;BME280;10774;42.178;26.578;2022-12-15T03:04:14;99342.94;;;5.30;100.00
21234;BME280;10774;42.178;26.578;2022-12-15T03:06:41;99334.63;;;5.36;100.00
21234;BME280;10774;42.178;26.578;2022-12-15T03:09:06;99315.00;;;5.21;100.00
21234;BME280;10774;42.178;26.578;2022-12-15T03:11:32;99327.44;;;5.38;100.00
21234;BME280;10774;42.178;26.578;2022-12-15T03:13:58;99299.31;;;5.50;100.00
21234;BME280;10774;42.178;26.578;2022-12-15T03:16:23;99309.84;;;5.85;100.00
21234;BME280;10774;42.178;26.578;2022-12-15T03:18:49;99327.44;;;6.05;100.00
21234;BME280;10774;42.178;26.578;2022-12-15T03:21:14;99328.63;;;6.15;100.00
21234;BME280;10774;42.178;26.578;2022-12-15T03:23:39;99318.84;;;6.15;100.00
21234;BME280;10774;42.178;26.578;2022-12-15T03:26:05;99325.38;;;6.10;100.00
21234;BME280;10774;42.178;26.578;2022-12-15T03:28:31;99343.63;;;6.33;100.00
21234;BME280;10774;42.178;26.578;2022-12-15T03:30:57;99327.78;;;6.30;100.00
21234;BME280;10774;42.178;26.578;2022-12-15T03:33:22;99343.44;;;6.36;100.00
21234;BME280;10774;42.178;26.578;2022-12-15T03:35:48;99343.91;;;6.59;100.00
21234;BME280;10774;42.178;26.578;2022-12-15T03:38:14;99308.84;;;6.50;100.00
21234;BME280;10774;42.178;26.578;2022-12-15T03:40:39;99340.38;;;6.74;100.00
21234;BME280;10774;42.178;26.578;2022-12-15T03:43:04;99312.94;;;6.72;100.00
21234;BME280;10774;42.178;26.578;2022-12-15T03:45:30;99324.25;;;6.91;100.00
21234;BME280;10774;42.178;26.578;2022-12-15T03:47:56;99334.59;;;7.12;100.00
21234;BME280;10774;42.178;26.578;2022-12-15T03:50:24;99324.69;;;7.14;100.00
21234;BME280;10774;42.178;26.578;2022-12-15T03:52:56;99346.75;;;7.31;100.00
21234;BME280;10774;42.178;26.578;2022-12-15T03:55:22;99339.97;;;7.26;100.00
21234;BME280;10774;42.178;26.578;2022-12-15T03:57:48;99318.44;;;7.29;100.00
21234;BME280;10774;42.178;26.578;2022-12-15T04:00:16;99303.66;;;7.23;100.00
21234;BME280;10774;42.178;26.578;2022-12-15T04:02:43;99313.41;;;7.39;100.00
21234;BME280;10774;42.178;26.578;2022-12-15T04:05:14;99301.50;;;7.44;100.00
21234;BME280;10774;42.178;26.578;2022-12-15T04:07:40;99301.50;;;7.44;100.00
21234;BME280;10774;42.178;26.578;2022-12-15T04:10:05;99325.03;;;7.52;100.00
21234;BME280;10774;42.178;26.578;2022-12-15T04:12:31;99308.16;;;7.51;100.00
21234;BME280;10774;42.178;26.578;2022-12-15T04:14:56;99305.78;;;7.47;100.00
21234;BME280;10774;42.178;26.578;2022-12-15T04:17:22;99314.38;;;7.52;100.00
21234;BME280;10774;42.178;26.578;2022-12-15T04:19:47;99324.00;;;7.54;100.00
21234;BME280;10774;42.178;26.578;2022-12-15T04:22:31;99324.09;;;7.53;100.00
21234;BME280;10774;42.178;26.578;2022-12-15T04:24:56;99326.09;;;7.49;100.00
21234;BME280;10774;42.178;26.578;2022-12-15T04:27:40;99328.56;;;7.52;100.00
21234;BME280;10774;42.178;26.578;2022-12-15T04:30:24;99322.94;;;7.57;100.00
21234;BME280;10774;42.178;26.578;2022-12-15T04:33:09;99331.16;;;7.68;100.00
21234;BME280;10774;42.178;26.578;2022-12-15T04:35:53;99340.59;;;7.74;100.00
21234;BME280;10774;42.178;26.578;2022-12-15T04:38:37;99323.25;;;7.67;100.00
21234;BME280;10774;42.178;26.578;2022-12-15T04:41:22;99352.25;;;7.73;100.00
21234;BME280;10774;42.178;26.578;2022-12-15T04:44:08;99324.19;;;7.66;100.00
21234;BME280;10774;42.178;26.578;2022-12-15T04:46:53;99339.28;;;7.67;100.00
21234;BME280;10774;42.178;26.578;2022-12-15T04:49:37;99327.44;;;7.71;100.00
21234;BME280;10774;42.178;26.578;2022-12-15T04:52:21;99323.53;;;7.76;100.00
21234;BME280;10774;42.178;26.578;2022-12-15T04:55:05;99339.19;;;7.82;100.00
21234;BME280;10774;42.178;26.578;2022-12-15T04:57:49;99338.69;;;7.90;100.00
21234;BME280;10774;42.178;26.578;2022-12-15T05:00:35;99308.94;;;7.68;100.00
21234;BME280;10774;42.178;26.578;2022-12-15T05:03:19;99327.53;;;7.83;100.00
21234;BME280;10774;42.178;26.578;2022-12-15T05:06:03;99328.22;;;7.87;100.00
21234;BME280;10774;42.178;26.578;2022-12-15T05:08:46;99323.03;;;7.84;100.00
21234;BME280;10774;42.178;26.578;2022-12-15T05:11:30;99320.19;;;7.87;100.00
21234;BME280;10774;42.178;26.578;2022-12-15T05:14:14;99315.25;;;7.81;100.00
21234;BME280;10774;42.178;26.578;2022-12-15T05:16:58;99315.81;;;7.86;100.00
21234;BME280;10774;42.178;26.578;2022-12-15T05:19:42;99307.69;;;7.88;100.00
21234;BME280;10774;42.178;26.578;2022-12-15T05:22:26;99314.47;;;7.93;100.00
21234;BME280;10774;42.178;26.578;2022-12-15T05:25:10;99286.59;;;7.83;100.00
21234;BME280;10774;42.178;26.578;2022-12-15T05:27:54;99307.00;;;7.98;100.00
21234;BME280;10774;42.178;26.578;2022-12-15T05:30:38;99330.78;;;8.03;100.00
21234;BME280;10774;42.178;26.578;2022-12-15T05:33:22;99303.78;;;7.93;100.00
21234;BME280;10774;42.178;26.578;2022-12-15T05:35:47;99306.78;;;8.01;100.00
21234;BME280;10774;42.178;26.578;2022-12-15T05:38:14;99315.78;;;8.00;100.00
21234;BME280;10774;42.178;26.578;2022-12-15T05:40:40;99290.31;;;7.95;100.00
21234;BME280;10774;42.178;26.578;2022-12-15T05:43:05;99329.13;;;8.15;100.00
21234;BME280;10774;42.178;26.578;2022-12-15T05:45:31;99312.91;;;8.03;100.00
21234;BME280;10774;42.178;26.578;2022-12-15T05:47:57;99297.63;;;8.05;100.00
21234;BME280;10774;42.178;26.578;2022-12-15T05:50:22;99297.16;;;8.13;100.00
21234;BME280;10774;42.178;26.578;2022-12-15T05:52:47;99314.22;;;8.25;100.00
21234;BME280;10774;42.178;26.578;2022-12-15T05:55:15;99305.25;;;8.11;100.00
21234;BME280;10774;42.178;26.578;2022-12-15T05:57:41;99322.34;;;8.23;100.00
21234;BME280;10774;42.178;26.578;2022-12-15T06:00:07;99323.38;;;8.21;100.00
21234;BME280;10774;42.178;26.578;2022-12-15T06:02:32;99330.25;;;8.25;100.00
21234;BME280;10774;42.178;26.578;2022-12-15T06:04:58;99333.50;;;8.30;100.00
21234;BME280;10774;42.178;26.578;2022-12-15T06:07:23;99323.19;;;8.24;100.00
21234;BME280;10774;42.178;26.578;2022-12-15T06:09:48;99352.22;;;8.30;100.00
21234;BME280;10774;42.178;26.578;2022-12-15T06:12:14;99344.66;;;8.22;100.00
21234;BME280;10774;42.178;26.578;2022-12-15T06:14:39;99355.28;;;8.24;100.00
21234;BME280;10774;42.178;26.578;2022-12-15T06:17:05;99357.00;;;8.25;100.00
21234;BME280;10774;42.178;26.578;2022-12-15T06:19:30;99354.50;;;8.22;100.00
21234;BME280;10774;42.178;26.578;2022-12-15T06:21:55;99350.91;;;8.23;100.00
21234;BME280;10774;42.178;26.578;2022-12-15T06:24:21;99361.19;;;8.29;100.00
21234;BME280;10774;42.178;26.578;2022-12-15T06:26:46;99376.06;;;8.33;100.00
21234;BME280;10774;42.178;26.578;2022-12-15T06:29:12;99375.97;;;8.34;100.00
21234;BME280;10774;42.178;26.578;2022-12-15T06:31:39;99382.38;;;8.32;100.00
21234;BME280;10774;42.178;26.578;2022-12-15T06:34:07;99393.38;;;8.42;100.00
21234;BME280;10774;42.178;26.578;2022-12-15T06:36:33;99395.88;;;8.45;100.00
21234;BME280;10774;42.178;26.578;2022-12-15T06:39:01;99409.53;;;8.40;100.00
21234;BME280;10774;42.178;26.578;2022-12-15T06:41:27;99405.69;;;8.16;100.00
21234;BME280;10774;42.178;26.578;2022-12-15T06:43:56;99402.16;;;8.01;100.00
21234;BME280;10774;42.178;26.578;2022-12-15T06:46:23;99431.38;;;8.18;100.00
21234;BME280;10774;42.178;26.578;2022-12-15T06:48:49;99443.88;;;8.03;100.00
21234;BME280;10774;42.178;26.578;2022-12-15T06:51:15;99443.09;;;7.87;100.00
21234;BME280;10774;42.178;26.578;2022-12-15T06:53:41;99440.41;;;8.01;100.00
21234;BME280;10774;42.178;26.578;2022-12-15T06:56:17;99455.31;;;8.05;100.00
21234;BME280;10774;42.178;26.578;2022-12-15T06:58:44;99449.00;;;8.06;100.00
21234;BME280;10774;42.178;26.578;2022-12-15T07:01:10;99470.69;;;8.16;100.00
21234;BME280;10774;42.178;26.578;2022-12-15T07:03:36;99445.72;;;7.73;100.00
21234;BME280;10774;42.178;26.578;2022-12-15T07:06:05;99437.72;;;7.73;100.00
21234;BME280;10774;42.178;26.578;2022-12-15T07:08:31;99440.50;;;7.41;100.00
21234;BME280;10774;42.178;26.578;2022-12-15T07:10:57;99435.41;;;7.06;100.00
21234;BME280;10774;42.178;26.578;2022-12-15T07:13:22;99431.66;;;6.79;100.00
21234;BME280;10774;42.178;26.578;2022-12-15T07:15:48;99461.94;;;6.78;100.00
21234;BME280;10774;42.178;26.578;2022-12-15T07:18:14;99461.34;;;6.89;100.00
21234;BME280;10774;42.178;26.578;2022-12-15T07:20:40;99463.66;;;6.95;100.00
21234;BME280;10774;42.178;26.578;2022-12-15T07:23:06;99459.19;;;6.95;100.00
21234;BME280;10774;42.178;26.578;2022-12-15T07:25:38;99468.13;;;6.94;100.00
21234;BME280;10774;42.178;26.578;2022-12-15T07:28:04;99483.41;;;7.22;100.00
21234;BME280;10774;42.178;26.578;2022-12-15T07:30:30;99464.63;;;7.40;100.00
21234;BME280;10774;42.178;26.578;2022-12-15T07:32:56;99469.56;;;7.62;100.00
21234;BME280;10774;42.178;26.578;2022-12-15T07:35:22;99488.50;;;7.27;100.00
21234;BME280;10774;42.178;26.578;2022-12-15T07:37:47;99480.09;;;6.87;100.00
21234;BME280;10774;42.178;26.578;2022-12-15T07:40:13;99505.84;;;7.04;100.00
21234;BME280;10774;42.178;26.578;2022-12-15T07:42:38;99490.94;;;6.84;100.00
21234;BME280;10774;42.178;26.578;2022-12-15T07:45:04;99503.50;;;7.14;100.00
21234;BME280;10774;42.178;26.578;2022-12-15T07:47:30;99492.63;;;7.17;100.00
21234;BME280;10774;42.178;26.578;2022-12-15T07:49:56;99494.91;;;7.08;100.00
21234;BME280;10774;42.178;26.578;2022-12-15T07:52:22;99503.06;;;7.05;100.00
21234;BME280;10774;42.178;26.578;2022-12-15T07:54:48;99495.47;;;7.45;100.00
21234;BME280;10774;42.178;26.578;2022-12-15T07:57:13;99520.56;;;7.57;100.00
21234;BME280;10774;42.178;26.578;2022-12-15T07:59:40;99518.41;;;7.64;100.00
21234;BME280;10774;42.178;26.578;2022-12-15T08:02:06;99504.22;;;7.47;100.00
21234;BME280;10774;42.178;26.578;2022-12-15T08:04:31;99519.84;;;7.39;100.00
21234;BME280;10774;42.178;26.578;2022-12-15T08:06:57;99528.88;;;7.37;100.00
21234;BME280;10774;42.178;26.578;2022-12-15T08:09:23;99546.91;;;7.33;100.00
21234;BME280;10774;42.178;26.578;2022-12-15T08:11:49;99539.41;;;7.24;100.00
21234;BME280;10774;42.178;26.578;2022-12-15T08:14:15;99529.41;;;7.12;100.00
21234;BME280;10774;42.178;26.578;2022-12-15T08:16:41;99555.59;;;7.21;100.00
21234;BME280;10774;42.178;26.578;2022-12-15T08:19:10;99544.75;;;7.24;100.00
21234;BME280;10774;42.178;26.578;2022-12-15T08:21:38;99547.81;;;7.32;100.00
21234;BME280;10774;42.178;26.578;2022-12-15T08:24:05;99531.28;;;7.41;100.00
21234;BME280;10774;42.178;26.578;2022-12-15T08:26:32;99553.78;;;7.21;100.00
21234;BME280;10774;42.178;26.578;2022-12-15T08:29:01;99546.22;;;6.98;100.00
21234;BME280;10774;42.178;26.578;2022-12-15T08:31:28;99548.63;;;7.02;100.00
21234;BME280;10774;42.178;26.578;2022-12-15T08:33:54;99532.88;;;7.14;100.00
21234;BME280;10774;42.178;26.578;2022-12-15T08:36:20;99530.28;;;7.28;100.00
21234;BME280;10774;42.178;26.578;2022-12-15T08:38:46;99529.50;;;7.26;100.00
21234;BME280;10774;42.178;26.578;2022-12-15T08:41:19;99570.38;;;7.42;100.00
21234;BME280;10774;42.178;26.578;2022-12-15T08:43:47;99543.19;;;7.20;100.00
21234;BME280;10774;42.178;26.578;2022-12-15T08:46:13;99558.00;;;7.41;100.00
21234;BME280;10774;42.178;26.578;2022-12-15T08:48:38;99511.16;;;7.20;100.00
21234;BME280;10774;42.178;26.578;2022-12-15T08:51:04;99534.84;;;7.26;100.00
21234;BME280;10774;42.178;26.578;2022-12-15T08:53:30;99538.22;;;7.14;100.00
21234;BME280;10774;42.178;26.578;2022-12-15T08:56:01;99555.59;;;7.21;100.00
21234;BME280;10774;42.178;26.578;2022-12-15T08:58:27;99536.31;;;7.16;100.00
21234;BME280;10774;42.178;26.578;2022-12-15T09:00:58;99546.72;;;7.20;100.00
21234;BME280;10774;42.178;26.578;2022-12-15T09:03:24;99559.81;;;7.25;100.00
21234;BME280;10774;42.178;26.578;2022-12-15T09:05:49;99566.88;;;7.26;100.00
21234;BME280;10774;42.178;26.578;2022-12-15T09:08:15;99560.75;;;7.24;100.00
21234;BME280;10774;42.178;26.578;2022-12-15T09:10:40;99549.22;;;7.07;100.00
21234;BME280;10774;42.178;26.578;2022-12-15T09:13:06;99564.53;;;7.20;100.00
21234;BME280;10774;42.178;26.578;2022-12-15T09:15:31;99577.72;;;7.23;100.00
21234;BME280;10774;42.178;26.578;2022-12-15T09:17:57;99577.97;;;7.18;100.00
21234;BME280;10774;42.178;26.578;2022-12-15T09:20:22;99566.25;;;7.21;100.00
21234;BME280;10774;42.178;26.578;2022-12-15T09:22:47;99566.69;;;7.29;100.00
21234;BME280;10774;42.178;26.578;2022-12-15T09:25:13;99552.31;;;7.31;100.00
21234;BME280;10774;42.178;26.578;2022-12-15T09:27:38;99567.03;;;7.54;100.00
21234;BME280;10774;42.178;26.578;2022-12-15T09:30:04;99562.34;;;7.58;100.00
21234;BME280;10774;42.178;26.578;2022-12-15T09:32:30;99586.38;;;7.74;100.00
21234;BME280;10774;42.178;26.578;2022-12-15T09:34:57;99573.22;;;7.71;100.00
21234;BME280;10774;42.178;26.578;2022-12-15T09:37:22;99570.16;;;7.77;100.00
21234;BME280;10774;42.178;26.578;2022-12-15T09:39:48;99573.22;;;7.85;100.00
21234;BME280;10774;42.178;26.578;2022-12-15T09:42:25;99561.41;;;7.89;100.00
21234;BME280;10774;42.178;26.578;2022-12-15T09:44:58;99574.56;;;8.08;100.00
21234;BME280;10774;42.178;26.578;2022-12-15T09:47:55;99578.69;;;8.13;100.00
21234;BME280;10774;42.178;26.578;2022-12-15T09:50:34;99565.09;;;8.02;100.00
21234;BME280;10774;42.178;26.578;2022-12-15T09:53:02;99579.41;;;8.01;100.00
21234;BME280;10774;42.178;26.578;2022-12-15T09:55:29;99578.38;;;8.04;100.00
21234;BME280;10774;42.178;26.578;2022-12-15T09:58:04;99574.09;;;8.16;100.00
21234;BME280;10774;42.178;26.578;2022-12-15T10:00:39;99573.13;;;8.17;100.00
21234;BME280;10774;42.178;26.578;2022-12-15T10:06:06;99583.22;;;7.97;100.00
21234;BME280;10774;42.178;26.578;2022-12-15T10:08:34;99563.78;;;8.09;100.00
21234;BME280;10774;42.178;26.578;2022-12-15T10:16:26;99591.97;;;8.45;100.00
21234;BME280;10774;42.178;26.578;2022-12-15T10:19:16;99592.34;;;8.39;100.00
21234;BME280;10774;42.178;26.578;2022-12-15T10:21:44;99576.13;;;8.26;100.00
21234;BME280;10774;42.178;26.578;2022-12-15T10:26:40;99582.75;;;8.35;100.00
21234;BME280;10774;42.178;26.578;2022-12-15T10:31:50;99589.03;;;8.34;100.00
21234;BME280;10774;42.178;26.578;2022-12-15T10:34:30;99587.47;;;8.46;100.00
21234;BME280;10774;42.178;26.578;2022-12-15T10:36:56;99585.59;;;8.32;100.00
21234;BME280;10774;42.178;26.578;2022-12-15T10:39:23;99591.38;;;8.40;100.00
21234;BME280;10774;42.178;26.578;2022-12-15T10:44:53;99573.00;;;8.34;100.00
21234;BME280;10774;42.178;26.578;2022-12-15T10:47:24;99604.66;;;8.42;100.00
21234;BME280;10774;42.178;26.578;2022-12-15T10:49:51;99594.63;;;8.45;100.00
21234;BME280;10774;42.178;26.578;2022-12-15T10:52:36;99587.00;;;8.39;100.00
21234;BME280;10774;42.178;26.578;2022-12-15T10:55:37;99598.19;;;8.60;100.00
21234;BME280;10774;42.178;26.578;2022-12-15T10:58:16;99597.09;;;8.48;100.00
21234;BME280;10774;42.178;26.578;2022-12-15T11:00:43;99609.56;;;8.49;100.00
21234;BME280;10774;42.178;26.578;2022-12-15T11:03:25;99616.41;;;8.39;100.00
21234;BME280;10774;42.178;26.578;2022-12-15T11:05:54;99614.34;;;8.28;100.00
21234;BME280;10774;42.178;26.578;2022-12-15T11:08:21;99618.47;;;8.34;100.00
21234;BME280;10774;42.178;26.578;2022-12-15T11:10:57;99623.81;;;8.34;100.00
21234;BME280;10774;42.178;26.578;2022-12-15T11:14:05;99635.22;;;8.22;100.00
21234;BME280;10774;42.178;26.578;2022-12-15T11:16:31;99609.69;;;8.02;100.00
21234;BME280;10774;42.178;26.578;2022-12-15T11:19:06;99614.19;;;8.16;100.00
21234;BME280;10774;42.178;26.578;2022-12-15T11:21:38;99632.25;;;8.12;100.00
21234;BME280;10774;42.178;26.578;2022-12-15T11:24:24;99608.41;;;8.23;100.00
21234;BME280;10774;42.178;26.578;2022-12-15T11:29:48;99625.81;;;8.89;100.00
21234;BME280;10774;42.178;26.578;2022-12-15T11:32:21;99637.09;;;9.08;100.00
21234;BME280;10774;42.178;26.578;2022-12-15T11:34:48;99621.59;;;8.56;100.00
21234;BME280;10774;42.178;26.578;2022-12-15T11:45:23;99622.13;;;9.47;100.00
21234;BME280;10774;42.178;26.578;2022-12-15T11:50:31;99630.84;;;9.78;100.00
21234;BME280;10774;42.178;26.578;2022-12-15T11:53:09;99625.50;;;9.78;100.00
21234;BME280;10774;42.178;26.578;2022-12-15T12:09:15;99656.13;;;10.28;100.00
21234;BME280;10774;42.178;26.578;2022-12-15T12:14:39;99665.59;;;10.33;100.00
21234;BME280;10774;42.178;26.578;2022-12-15T12:17:11;99656.19;;;10.40;100.00
21234;BME280;10774;42.178;26.578;2022-12-15T12:22:34;99654.78;;;10.35;100.00
21234;BME280;10774;42.178;26.578;2022-12-15T12:25:07;99647.22;;;10.00;100.00
21234;BME280;10774;42.178;26.578;2022-12-15T12:30:17;99668.91;;;9.97;100.00
21234;BME280;10774;42.178;26.578;2022-12-15T12:35:22;99663.03;;;10.32;100.00
21234;BME280;10774;42.178;26.578;2022-12-15T12:38:00;99670.16;;;10.45;100.00
21234;BME280;10774;42.178;26.578;2022-12-15T12:43:35;99679.66;;;10.77;100.00
21234;BME280;10774;42.178;26.578;2022-12-15T12:48:39;99673.63;;;10.86;100.00
21234;BME280;10774;42.178;26.578;2022-12-15T12:51:29;99687.81;;;10.88;100.00
21234;BME280;10774;42.178;26.578;2022-12-15T12:53:56;99681.56;;;10.74;100.00
21234;BME280;10774;42.178;26.578;2022-12-15T12:56:35;99684.69;;;11.07;100.00
21234;BME280;10774;42.178;26.578;2022-12-15T12:59:05;99670.63;;;11.03;100.00
21234;BME280;10774;42.178;26.578;2022-12-15T13:01:49;99678.91;;;11.13;100.00
21234;BME280;10774;42.178;26.578;2022-12-15T13:04:42;99682.22;;;10.65;100.00
21234;BME280;10774;42.178;26.578;2022-12-15T13:10:15;99695.44;;;10.29;100.00
21234;BME280;10774;42.178;26.578;2022-12-15T13:18:11;99705.72;;;10.08;100.00
21234;BME280;10774;42.178;26.578;2022-12-15T13:20:38;99701.66;;;9.88;100.00
21234;BME280;10774;42.178;26.578;2022-12-15T13:44:36;99745.28;;;10.45;100.00
21234;BME280;10774;42.178;26.578;2022-12-15T13:47:11;99748.53;;;10.63;100.00
21234;BME280;10774;42.178;26.578;2022-12-15T13:49:51;99746.41;;;10.68;100.00
21234;BME280;10774;42.178;26.578;2022-12-15T13:54:53;99760.81;;;10.67;100.00
21234;BME280;10774;42.178;26.578;2022-12-15T13:57:19;99765.97;;;10.70;100.00
21234;BME280;10774;42.178;26.578;2022-12-15T13:59:50;99774.16;;;10.28;100.00
21234;BME280;10774;42.178;26.578;2022-12-15T14:02:31;99776.88;;;10.13;100.00
21234;BME280;10774;42.178;26.578;2022-12-15T14:05:18;99794.78;;;10.27;100.00
21234;BME280;10774;42.178;26.578;2022-12-15T14:13:00;99760.25;;;9.80;100.00
21234;BME280;10774;42.178;26.578;2022-12-15T14:15:31;99789.56;;;9.68;100.00
21234;BME280;10774;42.178;26.578;2022-12-15T14:18:00;99777.91;;;9.41;100.00
21234;BME280;10774;42.178;26.578;2022-12-15T14:20:38;99786.88;;;9.83;100.00
21234;BME280;10774;42.178;26.578;2022-12-15T14:23:18;99789.94;;;9.62;100.00
21234;BME280;10774;42.178;26.578;2022-12-15T14:25:55;99755.13;;;9.34;100.00
21234;BME280;10774;42.178;26.578;2022-12-15T14:28:27;99776.31;;;9.08;100.00
21234;BME280;10774;42.178;26.578;2022-12-15T14:30:57;99765.81;;;9.20;100.00
21234;BME280;10774;42.178;26.578;2022-12-15T14:33:23;99774.59;;;9.22;100.00
21234;BME280;10774;42.178;26.578;2022-12-15T14:35:50;99760.06;;;8.97;100.00
21234;BME280;10774;42.178;26.578;2022-12-15T14:38:23;99742.03;;;8.71;100.00
21234;BME280;10774;42.178;26.578;2022-12-15T14:40:54;99772.25;;;8.87;100.00
21234;BME280;10774;42.178;26.578;2022-12-15T14:43:24;99774.16;;;8.85;100.00
21234;BME280;10774;42.178;26.578;2022-12-15T14:45:56;99768.78;;;8.71;100.00
21234;BME280;10774;42.178;26.578;2022-12-15T14:48:33;99786.00;;;8.81;100.00
21234;BME280;10774;42.178;26.578;2022-12-15T14:51:01;99763.75;;;8.64;100.00
21234;BME280;10774;42.178;26.578;2022-12-15T14:53:34;99786.13;;;8.63;100.00
21234;BME280;10774;42.178;26.578;2022-12-15T15:02:11;99822.47;;;8.52;100.00
21234;BME280;10774;42.178;26.578;2022-12-15T15:04:31;99828.28;;;8.44;100.00
21234;BME280;10774;42.178;26.578;2022-12-15T15:07:03;99834.09;;;8.03;100.00
21234;BME280;10774;42.178;26.578;2022-12-15T15:09:32;99826.00;;;8.21;100.00
21234;BME280;10774;42.178;26.578;2022-12-15T15:12:20;99829.78;;;8.17;100.00
21234;BME280;10774;42.178;26.578;2022-12-15T15:14:59;99824.88;;;7.93;100.00
21234;BME280;10774;42.178;26.578;2022-12-15T15:17:37;99823.41;;;8.03;100.00
21234;BME280;10774;42.178;26.578;2022-12-15T15:20:17;99828.56;;;8.06;100.00
21234;BME280;10774;42.178;26.578;2022-12-15T15:22:46;99831.69;;;7.99;100.00